createdAt,value
2023-03-03T00:00:09.949Z,22.90
2023-03-03T00:02:40.428Z,23.60
2023-03-03T00:05:13.170Z,23.87
2023-03-03T00:07:49.032Z,22.70
2023-03-03T00:10:19.669Z,21.63
2023-03-03T00:12:51.182Z,23.17
2023-03-03T00:15:25.114Z,22.13
2023-03-03T00:17:55.841Z,21.60
2023-03-03T00:20:37.125Z,23.67
2023-03-03T00:23:38.162Z,24.20
2023-03-03T00:26:23.812Z,25.40
2023-03-03T00:28:57.144Z,24.00
2023-03-03T00:31:36.261Z,27.47
2023-03-03T00:34:21.555Z,25.93
2023-03-03T00:36:56.297Z,25.50
2023-03-03T00:39:29.894Z,20.43
2023-03-03T00:42:03.391Z,23.07
2023-03-03T00:44:53.563Z,22.27
2023-03-03T00:47:32.799Z,22.20
2023-03-03T00:50:21.857Z,23.20
2023-03-03T00:53:07.269Z,20.37
2023-03-03T00:55:39.422Z,22.53
2023-03-03T00:58:10.200Z,22.27
2023-03-03T01:00:41.709Z,23.37
2023-03-03T01:03:18.305Z,24.17
2023-03-03T01:05:50.377Z,22.87
2023-03-03T01:08:22.267Z,25.67
2023-03-03T01:10:55.815Z,25.00
2023-03-03T01:13:29.210Z,25.63
2023-03-03T01:16:01.528Z,24.33
2023-03-03T01:18:34.160Z,25.90
2023-03-03T01:21:05.593Z,26.43
2023-03-03T01:23:36.774Z,22.70
2023-03-03T01:26:07.894Z,24.80
2023-03-03T01:28:38.557Z,23.60
2023-03-03T01:31:09.794Z,24.37
2023-03-03T01:33:40.435Z,25.03
2023-03-03T01:36:12.680Z,24.17
2023-03-03T01:38:44.001Z,23.80
2023-03-03T01:41:16.377Z,24.00
2023-03-03T01:43:51.443Z,24.67
2023-03-03T01:46:33.769Z,23.33
2023-03-03T01:49:09.082Z,21.63
2023-03-03T01:51:53.252Z,22.67
2023-03-03T01:54:26.840Z,21.00
2023-03-03T01:57:00.522Z,25.00
2023-03-03T01:59:34.081Z,20.35
2023-03-03T02:02:05.930Z,23.30
2023-03-03T02:04:38.375Z,24.80
2023-03-03T02:07:11.610Z,23.43
2023-03-03T02:10:00.259Z,24.10
2023-03-03T02:12:36.694Z,24.50
2023-03-03T02:15:25.480Z,24.00
2023-03-03T02:18:06.854Z,25.70
2023-03-03T02:20:55.433Z,23.43
2023-03-03T02:23:43.392Z,24.63
2023-03-03T02:26:24.482Z,23.80
2023-03-03T02:28:55.686Z,23.97
2023-03-03T02:31:29.853Z,25.50
2023-03-03T02:34:01.332Z,25.90
2023-03-03T02:36:37.727Z,26.37
2023-03-03T02:39:23.533Z,26.33
2023-03-03T02:42:16.511Z,28.43
2023-03-03T02:44:47.440Z,25.23
2023-03-03T02:47:18.031Z,25.57
2023-03-03T02:49:48.521Z,27.57
2023-03-03T02:52:19.114Z,24.07
2023-03-03T02:54:51.891Z,26.20
2023-03-03T02:57:22.453Z,26.50
2023-03-03T02:59:53.170Z,25.17
2023-03-03T03:02:23.813Z,26.77
2023-03-03T03:04:55.487Z,27.73
2023-03-03T03:07:26.728Z,27.43
2023-03-03T03:09:57.266Z,27.80
2023-03-03T03:12:30.184Z,26.30
2023-03-03T03:15:00.994Z,29.07
2023-03-03T03:17:32.101Z,26.57
2023-03-03T03:20:02.690Z,25.53
2023-03-03T03:22:33.349Z,25.70
2023-03-03T03:25:05.368Z,27.10
2023-03-03T03:27:36.284Z,28.87
2023-03-03T03:30:09.307Z,28.00
2023-03-03T03:32:39.957Z,25.23
2023-03-03T03:35:11.437Z,23.17
2023-03-03T03:37:42.273Z,28.23
2023-03-03T03:40:14.987Z,24.73
2023-03-03T03:42:45.400Z,26.30
2023-03-03T03:45:15.917Z,26.63
2023-03-03T03:47:48.107Z,30.63
2023-03-03T03:50:18.772Z,31.80
2023-03-03T03:52:49.353Z,30.27
2023-03-03T03:55:20.058Z,28.30
2023-03-03T03:57:50.616Z,32.20
2023-03-03T04:00:21.461Z,29.13
2023-03-03T04:02:52.712Z,32.50
2023-03-03T04:05:23.532Z,29.23
2023-03-03T04:07:53.954Z,28.10
2023-03-03T04:10:24.712Z,29.17
2023-03-03T04:12:55.254Z,27.67
2023-03-03T04:15:25.939Z,25.47
2023-03-03T04:17:56.829Z,24.70
2023-03-03T04:20:27.872Z,22.37
2023-03-03T04:22:58.572Z,21.70
2023-03-03T04:25:29.197Z,22.57
2023-03-03T04:27:59.671Z,23.17
2023-03-03T04:30:30.353Z,24.03
2023-03-03T04:33:00.897Z,25.00
2023-03-03T04:35:31.420Z,23.70
2023-03-03T04:38:05.863Z,30.93
2023-03-03T04:40:36.373Z,24.87
2023-03-03T04:43:06.964Z,23.23
2023-03-03T04:45:37.886Z,23.63
2023-03-03T04:48:10.057Z,25.77
2023-03-03T04:50:41.061Z,30.60
2023-03-03T04:53:12.104Z,33.07
2023-03-03T04:55:42.633Z,33.50
2023-03-03T04:58:13.809Z,32.50
2023-03-03T05:00:44.226Z,26.60
2023-03-03T05:03:14.841Z,27.40
2023-03-03T05:05:47.219Z,29.40
2023-03-03T05:08:19.410Z,33.40
2023-03-03T05:10:55.303Z,31.30
2023-03-03T05:13:27.282Z,32.37
2023-03-03T05:15:58.178Z,39.77
2023-03-03T05:18:30.707Z,35.10
2023-03-03T05:21:01.214Z,38.53
2023-03-03T05:23:32.074Z,34.77
2023-03-03T05:26:02.727Z,31.90
2023-03-03T05:28:34.763Z,33.07
2023-03-03T05:31:05.439Z,40.40
2023-03-03T05:33:35.957Z,37.67
2023-03-03T05:36:06.896Z,33.80
2023-03-03T05:38:43.033Z,38.80
2023-03-03T05:41:13.712Z,35.13
2023-03-03T05:43:45.946Z,33.47
2023-03-03T05:46:16.454Z,31.57
2023-03-03T05:48:53.829Z,34.80
2023-03-03T05:51:19.507Z,28.93
2023-03-03T05:53:50.229Z,30.80
2023-03-03T05:56:20.668Z,29.73
2023-03-03T05:58:51.257Z,34.27
2023-03-03T06:01:22.213Z,26.40
2023-03-03T06:03:52.883Z,30.40
2023-03-03T06:06:23.308Z,26.97
2023-03-03T06:08:56.201Z,25.97
2023-03-03T06:11:26.245Z,26.77
2023-03-03T06:13:59.377Z,26.13
2023-03-03T06:16:30.226Z,21.07
2023-03-03T06:19:01.373Z,23.47
2023-03-03T06:21:32.392Z,21.37
2023-03-03T06:24:02.917Z,22.47
2023-03-03T06:26:33.862Z,22.83
2023-03-03T06:29:04.410Z,22.67
2023-03-03T06:31:35.773Z,22.13
2023-03-03T06:34:06.576Z,23.70
2023-03-03T06:36:38.449Z,22.77
2023-03-03T06:39:08.946Z,25.20
2023-03-03T06:41:39.976Z,23.87
2023-03-03T06:44:12.231Z,26.00
2023-03-03T06:46:42.660Z,24.27
2023-03-03T06:49:13.272Z,22.43
2023-03-03T06:51:45.865Z,22.80
2023-03-03T06:54:21.906Z,21.63
2023-03-03T06:56:55.643Z,29.33
2023-03-03T06:59:28.795Z,25.63
2023-03-03T07:01:59.539Z,28.50
2023-03-03T07:04:33.823Z,23.40
2023-03-03T07:07:25.720Z,27.93
2023-03-03T07:09:57.637Z,26.97
2023-03-03T07:12:31.178Z,28.90
2023-03-03T07:15:06.345Z,29.70
2023-03-03T07:17:39.270Z,31.30
2023-03-03T07:20:27.605Z,30.37
2023-03-03T07:22:59.102Z,29.27
2023-03-03T07:25:36.439Z,32.47
2023-03-03T07:28:29.891Z,24.27
2023-03-03T07:31:00.683Z,24.47
2023-03-03T07:33:34.398Z,31.23
2023-03-03T07:36:07.413Z,27.30
2023-03-03T07:38:45.468Z,33.57
2023-03-03T07:41:23.534Z,32.50
2023-03-03T07:44:02.534Z,30.70
2023-03-03T07:46:49.305Z,31.33
2023-03-03T07:49:31.826Z,35.33
2023-03-03T07:52:03.421Z,31.57
2023-03-03T07:54:40.356Z,26.33
2023-03-03T07:57:21.496Z,25.10
2023-03-03T08:00:01.604Z,26.77
2023-03-03T08:03:05.219Z,27.03
2023-03-03T08:05:43.533Z,24.87
2023-03-03T08:08:23.739Z,22.87
2023-03-03T08:10:56.249Z,24.17
2023-03-03T08:13:38.586Z,22.90
2023-03-03T08:16:15.062Z,22.87
2023-03-03T08:18:51.505Z,29.03
2023-03-03T08:21:25.041Z,22.67
2023-03-03T08:23:55.543Z,24.60
2023-03-03T08:26:27.484Z,26.20
2023-03-03T08:28:58.085Z,25.50
2023-03-03T08:31:40.703Z,22.27
2023-03-03T08:34:03.879Z,24.33
2023-03-03T08:36:35.239Z,23.67
2023-03-03T08:39:06.723Z,24.43
2023-03-03T08:41:37.238Z,18.90
2023-03-03T08:44:08.222Z,16.90
2023-03-03T08:46:39.279Z,16.23
2023-03-03T08:49:09.947Z,15.87
2023-03-03T08:51:41.927Z,17.93
2023-03-03T08:54:12.606Z,16.50
2023-03-03T08:56:43.347Z,16.93
2023-03-03T08:59:14.332Z,14.50
2023-03-03T09:01:45.572Z,15.67
2023-03-03T09:04:16.191Z,16.53
2023-03-03T09:06:46.852Z,20.07
2023-03-03T09:09:17.420Z,16.40
2023-03-03T09:11:48.104Z,14.83
2023-03-03T09:14:21.149Z,28.40
2023-03-03T09:16:56.429Z,37.23
2023-03-03T09:19:32.567Z,36.63
2023-03-03T09:22:24.102Z,35.90
2023-03-03T09:25:00.306Z,25.37
2023-03-03T09:27:33.354Z,20.37
2023-03-03T09:30:07.996Z,23.87
2023-03-03T09:32:42.993Z,26.90
2023-03-03T09:35:37.577Z,21.02
2023-03-03T09:38:32.355Z,20.77
2023-03-03T09:41:11.860Z,15.30
2023-03-03T09:44:12.278Z,21.13
2023-03-03T09:47:22.177Z,20.67
2023-03-03T09:49:56.544Z,24.30
2023-03-03T09:52:53.746Z,29.40
2023-03-03T09:55:30.590Z,26.40
2023-03-03T09:58:26.632Z,30.03
2023-03-03T10:01:22.820Z,25.30
2023-03-03T10:04:30.084Z,26.60
2023-03-03T10:07:24.607Z,27.40
2023-03-03T10:10:24.253Z,18.67
2023-03-03T10:13:34.548Z,14.23
2023-03-03T10:16:14.375Z,15.90
2023-03-03T10:18:54.120Z,19.73
2023-03-03T10:21:42.632Z,20.37
2023-03-03T10:24:43.733Z,27.67
2023-03-03T10:27:19.761Z,31.63
2023-03-03T10:29:57.300Z,28.70
2023-03-03T10:32:52.544Z,32.27
2023-03-03T10:35:26.300Z,29.03
2023-03-03T10:38:02.898Z,24.00
2023-03-03T10:40:40.341Z,23.87
2023-03-03T10:43:32.323Z,26.50
2023-03-03T10:46:23.256Z,28.90
2023-03-03T10:49:02.575Z,28.85
2023-03-03T10:51:55.245Z,29.30
2023-03-03T10:54:30.570Z,27.58
2023-03-03T10:57:13.409Z,27.60
2023-03-03T11:00:17.906Z,35.87
2023-03-03T11:03:12.149Z,27.97
2023-03-03T11:05:54.259Z,27.35
2023-03-03T11:08:46.130Z,28.63
2023-03-03T11:11:32.032Z,23.75
2023-03-03T11:14:20.762Z,23.53
2023-03-03T11:16:54.342Z,23.57
2023-03-03T11:19:53.789Z,23.33
2023-03-03T11:22:42.063Z,23.05
2023-03-03T11:25:34.561Z,26.27
2023-03-03T11:28:17.326Z,24.37
2023-03-03T11:31:14.947Z,29.63
2023-03-03T11:33:54.608Z,26.10
2023-03-03T11:36:31.288Z,27.02
2023-03-03T11:39:15.966Z,23.30
2023-03-03T11:42:01.334Z,25.15
2023-03-03T11:44:44.834Z,26.10
2023-03-03T11:47:31.797Z,22.23
2023-03-03T11:50:11.169Z,25.40
2023-03-03T11:52:56.899Z,25.00
2023-03-03T11:55:30.481Z,25.50
2023-03-03T11:58:25.454Z,26.17
2023-03-03T12:01:20.064Z,25.93
2023-03-03T12:03:56.079Z,28.60
2023-03-03T12:06:41.659Z,29.48
2023-03-03T12:09:28.104Z,33.53
2023-03-03T12:12:19.751Z,31.68
2023-03-03T12:15:06.208Z,33.10
2023-03-03T12:18:08.122Z,36.13
2023-03-03T12:21:03.145Z,34.20
2023-03-03T12:23:54.978Z,37.90
2023-03-03T12:26:50.899Z,35.20
2023-03-03T12:29:46.900Z,41.57
2023-03-03T12:32:23.229Z,42.97
2023-03-03T12:35:06.055Z,38.70
2023-03-03T12:37:51.746Z,39.33
2023-03-03T12:40:29.034Z,29.63
2023-03-03T12:43:19.171Z,37.50
2023-03-03T12:46:19.815Z,39.13
2023-03-03T12:48:50.386Z,36.98
2023-03-03T12:51:32.696Z,37.50
2023-03-03T12:54:37.370Z,39.53
2023-03-03T12:57:10.927Z,32.13
2023-03-03T12:59:53.369Z,35.15
2023-03-03T13:02:49.609Z,29.37
2023-03-03T13:05:44.687Z,30.17
2023-03-03T13:08:40.714Z,28.60
2023-03-03T13:11:36.077Z,28.87
2023-03-03T13:14:42.722Z,28.23
2023-03-03T13:17:22.375Z,24.37
2023-03-03T13:20:02.594Z,19.40
2023-03-03T13:22:36.388Z,24.82
2023-03-03T13:25:32.035Z,24.50
2023-03-03T13:28:09.062Z,26.17
2023-03-03T13:30:45.769Z,22.02
2023-03-03T13:33:31.805Z,25.12
2023-03-03T13:36:14.451Z,25.15
2023-03-03T13:38:50.834Z,27.07
2023-03-03T13:41:50.283Z,29.33
2023-03-03T13:44:33.561Z,25.27
2023-03-03T13:47:16.972Z,25.12
2023-03-03T13:50:02.980Z,24.93
2023-03-03T13:52:36.591Z,25.43
2023-03-03T13:55:31.599Z,23.23
2023-03-03T13:58:05.144Z,31.67
2023-03-03T14:00:43.125Z,31.05
2023-03-03T14:03:29.583Z,27.45
2023-03-03T14:06:18.558Z,25.05
2023-03-03T14:09:10.250Z,26.40
2023-03-03T14:11:44.264Z,22.77
2023-03-03T14:14:36.308Z,28.93
2023-03-03T14:17:31.297Z,26.80
2023-03-03T14:20:21.501Z,31.90
2023-03-03T14:23:00.952Z,29.35
2023-03-03T14:25:57.788Z,31.87
2023-03-03T14:28:30.992Z,22.80
2023-03-03T14:31:05.736Z,23.05
2023-03-03T14:33:36.258Z,25.12
2023-03-03T14:36:11.030Z,23.35
2023-03-03T14:38:45.947Z,23.92
2023-03-03T14:41:19.304Z,27.57
2023-03-03T14:44:18.716Z,27.45
2023-03-03T14:47:09.253Z,28.20
2023-03-03T14:49:41.156Z,29.70
2023-03-03T14:52:17.947Z,30.90
2023-03-03T14:54:51.591Z,23.80
2023-03-03T14:57:26.678Z,24.23
2023-03-03T15:00:16.699Z,23.18
2023-03-03T15:03:05.983Z,25.87
2023-03-03T15:05:36.783Z,21.87
2023-03-03T15:08:10.320Z,24.52
2023-03-03T15:10:44.243Z,26.25
2023-03-03T15:13:24.070Z,23.40
2023-03-03T15:16:09.510Z,21.35
2023-03-03T15:19:16.404Z,25.35
2023-03-03T15:21:59.267Z,25.10
2023-03-03T15:24:42.329Z,19.03
2023-03-03T15:27:21.661Z,20.95
2023-03-03T15:30:08.367Z,17.87
2023-03-03T15:32:47.896Z,22.00
2023-03-03T15:35:38.470Z,19.25
2023-03-03T15:38:14.608Z,20.62
2023-03-03T15:40:52.063Z,22.35
2023-03-03T15:43:46.629Z,19.75
2023-03-03T15:46:41.898Z,23.60
2023-03-03T15:49:32.905Z,21.00
2023-03-03T15:52:23.726Z,20.25
2023-03-03T15:55:30.728Z,19.45
2023-03-03T15:58:04.254Z,20.17
2023-03-03T16:00:55.284Z,22.13
2023-03-03T16:03:31.481Z,21.62
2023-03-03T16:06:13.905Z,19.55
2023-03-03T16:09:04.406Z,21.55
2023-03-03T16:11:56.352Z,18.45
2023-03-03T16:14:51.408Z,20.05
2023-03-03T16:17:40.426Z,19.20
2023-03-03T16:20:33.047Z,22.83
2023-03-03T16:23:23.224Z,22.97
2023-03-03T16:26:18.597Z,18.83
2023-03-03T16:28:52.073Z,19.15
2023-03-03T16:31:32.222Z,22.00
2023-03-03T16:34:18.125Z,20.10
2023-03-03T16:37:17.179Z,19.35
2023-03-03T16:39:56.335Z,21.07
2023-03-03T16:42:34.774Z,20.63
2023-03-03T16:45:31.980Z,22.32
2023-03-03T16:48:27.047Z,22.13
2023-03-03T16:51:03.805Z,22.62
2023-03-03T16:54:04.898Z,21.97
2023-03-03T16:56:58.068Z,20.97
2023-03-03T16:59:47.071Z,20.77
2023-03-03T17:02:38.961Z,24.60
2023-03-03T17:05:18.397Z,24.03
2023-03-03T17:08:03.679Z,24.10
2023-03-03T17:10:40.071Z,22.33
2023-03-03T17:13:26.771Z,23.23
2023-03-03T17:16:21.932Z,23.53
2023-03-03T17:19:09.097Z,22.40
2023-03-03T17:22:02.173Z,23.93
2023-03-03T17:24:47.484Z,21.80
2023-03-03T17:27:40.225Z,24.57
2023-03-03T17:30:26.727Z,23.73
2023-03-03T17:33:06.328Z,25.63
2023-03-03T17:35:50.044Z,26.42
2023-03-03T17:38:58.306Z,26.85
2023-03-03T17:41:35.749Z,24.77
2023-03-03T17:44:18.351Z,24.57
2023-03-03T17:46:53.752Z,23.62
2023-03-03T17:49:45.208Z,24.33
2023-03-03T17:52:33.721Z,24.12
2023-03-03T17:55:26.947Z,23.25
2023-03-03T17:58:21.738Z,26.75
2023-03-03T18:00:55.308Z,23.75
2023-03-03T18:03:29.762Z,27.52
2023-03-03T18:06:32.264Z,23.32
2023-03-03T18:09:26.408Z,24.40
2023-03-03T18:12:29.257Z,22.62
2023-03-03T18:15:22.403Z,25.23
2023-03-03T18:18:01.802Z,24.00
2023-03-03T18:20:50.299Z,23.40
2023-03-03T18:23:37.407Z,21.17
2023-03-03T18:26:33.489Z,20.70
2023-03-03T18:29:19.483Z,22.27
2023-03-03T18:31:52.999Z,23.65
2023-03-03T18:34:43.960Z,24.75
2023-03-03T18:37:38.560Z,25.53
2023-03-03T18:40:13.706Z,23.30
2023-03-03T18:42:45.947Z,22.90
2023-03-03T18:45:24.552Z,22.83
2023-03-03T18:48:10.645Z,27.90
2023-03-03T18:50:49.329Z,22.80
2023-03-03T18:53:30.301Z,22.43
2023-03-03T18:56:08.460Z,26.00
2023-03-03T18:58:43.850Z,25.07
2023-03-03T19:01:36.273Z,24.60
2023-03-03T19:04:19.707Z,27.27
2023-03-03T19:06:56.079Z,25.02
2023-03-03T19:09:46.912Z,25.02
2023-03-03T19:12:20.255Z,23.43
2023-03-03T19:14:51.895Z,25.27
2023-03-03T19:17:29.421Z,24.18
2023-03-03T19:20:14.367Z,24.15
2023-03-03T19:22:47.606Z,25.37
2023-03-03T19:25:28.527Z,22.83
2023-03-03T19:28:26.585Z,23.52
2023-03-03T19:31:08.980Z,25.70
2023-03-03T19:33:56.928Z,25.17
2023-03-03T19:36:31.495Z,28.90
2023-03-03T19:39:17.710Z,27.77
2023-03-03T19:42:20.053Z,24.73
2023-03-03T19:45:05.564Z,23.87
2023-03-03T19:47:46.239Z,25.35
2023-03-03T19:50:25.909Z,24.25
2023-03-03T19:53:22.102Z,21.57
2023-03-03T19:56:07.395Z,20.90
2023-03-03T19:58:59.736Z,22.42
2023-03-03T20:01:53.018Z,21.30
2023-03-03T20:04:35.660Z,23.22
2023-03-03T20:07:27.770Z,21.67
2023-03-03T20:10:21.949Z,22.10
2023-03-03T20:13:12.266Z,21.15
2023-03-03T20:15:53.650Z,22.07
2023-03-03T20:18:29.782Z,23.70
2023-03-03T20:21:19.696Z,21.00
2023-03-03T20:24:02.409Z,22.02
2023-03-03T20:26:44.880Z,20.32
2023-03-03T20:29:33.394Z,22.07
2023-03-03T20:32:22.334Z,24.30
2023-03-03T20:35:04.679Z,17.62
2023-03-03T20:37:50.791Z,17.45
2023-03-03T20:40:48.024Z,13.40
2023-03-03T20:43:27.626Z,12.60
2023-03-03T20:46:19.457Z,15.93
2023-03-03T20:48:56.236Z,16.30
2023-03-03T20:51:35.683Z,14.27
2023-03-03T20:54:24.463Z,14.83
2023-03-03T20:57:03.570Z,16.87
2023-03-03T20:59:37.146Z,16.10
2023-03-03T21:02:31.996Z,16.53
2023-03-03T21:05:22.360Z,17.62
2023-03-03T21:07:58.222Z,17.65
2023-03-03T21:10:31.597Z,22.07
2023-03-03T21:13:22.039Z,18.62
2023-03-03T21:15:58.509Z,18.30
2023-03-03T21:18:31.840Z,19.40
2023-03-03T21:21:04.530Z,18.12
2023-03-03T21:23:36.491Z,17.17
2023-03-03T21:26:06.902Z,18.95
2023-03-03T21:28:37.811Z,16.93
2023-03-03T21:31:18.010Z,20.07
2023-03-03T21:34:00.326Z,18.37
2023-03-03T21:36:40.327Z,19.07
2023-03-03T21:39:30.421Z,19.70
2023-03-03T21:42:11.984Z,19.90
2023-03-03T21:44:50.343Z,20.87
2023-03-03T21:47:24.786Z,17.47
2023-03-03T21:49:55.850Z,18.55
2023-03-03T21:52:26.352Z,19.25
2023-03-03T21:54:57.063Z,19.97
2023-03-03T21:57:32.582Z,20.97
2023-03-03T22:00:00.773Z,21.00
2023-03-03T22:02:31.508Z,21.70
2023-03-03T22:05:03.728Z,22.82
2023-03-03T22:07:34.819Z,18.45
2023-03-03T22:10:08.361Z,18.73
2023-03-03T22:12:38.854Z,21.93
2023-03-03T22:15:11.164Z,19.85
2023-03-03T22:17:43.195Z,21.45
2023-03-03T22:20:16.930Z,20.80
2023-03-03T22:22:47.641Z,18.60
2023-03-03T22:25:18.392Z,19.25
2023-03-03T22:27:48.811Z,22.00
2023-03-03T22:30:20.921Z,17.27
2023-03-03T22:32:54.938Z,18.98
2023-03-03T22:35:27.190Z,20.97
2023-03-03T22:37:59.424Z,16.00
2023-03-03T22:40:31.512Z,17.97
2023-03-03T22:43:03.510Z,16.95
2023-03-03T22:45:37.947Z,19.17
2023-03-03T22:48:09.553Z,18.47
2023-03-03T22:50:45.457Z,21.48
2023-03-03T22:53:16.621Z,20.90
2023-03-03T22:55:47.602Z,24.43
2023-03-03T22:58:22.719Z,25.57
2023-03-03T23:00:56.172Z,27.30
2023-03-03T23:03:26.623Z,30.20
2023-03-03T23:06:03.277Z,25.63
2023-03-03T23:08:33.883Z,33.92
2023-03-03T23:11:04.382Z,28.73
2023-03-03T23:13:35.297Z,32.20
2023-03-03T23:16:06.498Z,31.67
2023-03-03T23:18:38.770Z,31.77
2023-03-03T23:21:09.464Z,35.97
2023-03-03T23:23:40.362Z,33.03
2023-03-03T23:26:10.927Z,36.57
2023-03-03T23:28:41.564Z,36.00
2023-03-03T23:31:13.047Z,38.67
2023-03-03T23:33:43.797Z,36.77
2023-03-03T23:36:15.496Z,38.23
2023-03-03T23:38:45.977Z,38.50
2023-03-03T23:41:16.599Z,38.05
2023-03-03T23:43:47.201Z,37.28
2023-03-03T23:46:19.563Z,42.70
2023-03-03T23:48:50.091Z,36.43
2023-03-03T23:51:20.673Z,39.80
2023-03-03T23:53:51.241Z,43.63
2023-03-03T23:56:21.686Z,40.13
2023-03-03T23:58:52.257Z,39.93
